Time;durP1;ratioP1;P1;durP2;ratioP2;P2;SDS_P1;SDS_P2;PMS_P1;PMS_P2;Temp;Humidity;BMP_temperature;BMP_pressure;BME280_temperature;BME280_humidity;BME280_pressure;Samples;Min_cycle;Max_cycle;Signal;HPM_P1;HPM_P2
2023/02/07 00:02:03;;;;;;;1.25;1.00;;;;;;;;;;5062372;28;20036;-46
2023/02/07 00:04:29;;;;;;;1.23;0.85;;;;;;;;;;5065438;28;20025;-46
2023/02/07 00:06:55;;;;;;;1.30;0.93;;;;;;;;;;5064096;28;20068;-46
2023/02/07 00:09:21;;;;;;;2.50;1.20;;;;;;;;;;5069200;28;20012;-46
2023/02/07 00:11:47;;;;;;;1.75;0.80;;;;;;;;;;5066152;28;20025;-46
2023/02/07 00:14:13;;;;;;;1.35;0.90;;;;;;;;;;5068170;28;20020;-47
2023/02/07 00:16:39;;;;;;;1.50;1.15;;;;;;;;;;5067642;28;20114;-46
2023/02/07 00:19:05;;;;;;;1.40;1.20;;;;;;;;;;5066346;28;20078;-46
2023/02/07 00:21:31;;;;;;;1.40;0.90;;;;;;;;;;5070006;28;20082;-46
2023/02/07 00:23:57;;;;;;;1.63;1.35;;;;;;;;;;5066003;28;20123;-46
2023/02/07 00:26:25;;;;;;;2.38;0.88;;;;;;;;;;5058410;28;20029;-45
2023/02/07 00:28:51;;;;;;;1.45;0.90;;;;;;;;;;5066189;28;20032;-46
2023/02/07 00:31:19;;;;;;;1.27;0.85;;;;;;;;;;5069896;28;20078;-45
2023/02/07 00:33:46;;;;;;;1.17;0.90;;;;;;;;;;5048212;28;20087;-46
2023/02/07 00:36:13;;;;;;;1.63;0.82;;;;;;;;;;5053356;28;20021;-47
2023/02/07 00:38:40;;;;;;;2.30;0.90;;;;;;;;;;5067572;28;20074;-46
2023/02/07 00:41:06;;;;;;;1.08;0.88;;;;;;;;;;5058354;28;20028;-47
2023/02/07 00:43:32;;;;;;;1.33;0.82;;;;;;;;;;5065803;28;20029;-48
2023/02/07 00:45:59;;;;;;;2.08;0.95;;;;;;;;;;5068301;28;20504;-45
2023/02/07 00:48:26;;;;;;;1.20;0.73;;;;;;;;;;5064445;28;20492;-46
2023/02/07 00:50:52;;;;;;;1.67;0.98;;;;;;;;;;5067317;28;20060;-45
2023/02/07 00:53:18;;;;;;;1.00;0.80;;;;;;;;;;5066267;28;20504;-45
2023/02/07 00:55:44;;;;;;;1.33;0.90;;;;;;;;;;5071062;28;20021;-45
2023/02/07 00:58:10;;;;;;;1.20;0.98;;;;;;;;;;5060535;28;20032;-45
2023/02/07 01:00:36;;;;;;;0.93;0.80;;;;;;;;;;5069545;28;20089;-45
2023/02/07 01:03:02;;;;;;;1.45;0.95;;;;;;;;;;5069825;28;20056;-45
2023/02/07 01:05:28;;;;;;;3.30;0.80;;;;;;;;;;5068453;28;20103;-45
2023/02/07 01:07:54;;;;;;;1.48;1.00;;;;;;;;;;5045524;28;20140;-46
2023/02/07 01:10:20;;;;;;;1.73;0.93;;;;;;;;;;5047951;28;20028;-46
2023/02/07 01:12:46;;;;;;;2.47;1.13;;;;;;;;;;5048894;28;20025;-47
2023/02/07 01:15:12;;;;;;;1.25;0.90;;;;;;;;;;5048045;28;20028;-46
2023/02/07 01:17:38;;;;;;;1.55;1.00;;;;;;;;;;5049564;28;20013;-46
2023/02/07 01:20:04;;;;;;;2.25;1.45;;;;;;;;;;5047744;28;20060;-46
2023/02/07 01:22:30;;;;;;;1.15;1.02;;;;;;;;;;5049700;28;20029;-46
2023/02/07 01:24:56;;;;;;;1.25;0.98;;;;;;;;;;5046416;28;20427;-46
2023/02/07 01:27:22;;;;;;;1.40;0.80;;;;;;;;;;5046248;28;20017;-46
2023/02/07 01:29:48;;;;;;;2.35;1.00;;;;;;;;;;5047413;28;20470;-45
2023/02/07 01:32:14;;;;;;;1.67;1.15;;;;;;;;;;5049685;28;20028;-45
2023/02/07 01:34:40;;;;;;;1.02;0.80;;;;;;;;;;5044070;28;20080;-46
2023/02/07 01:37:06;;;;;;;1.10;0.80;;;;;;;;;;5045285;28;20048;-45
2023/02/07 01:39:32;;;;;;;1.75;1.15;;;;;;;;;;5052388;28;20032;-46
2023/02/07 01:41:58;;;;;;;1.88;1.17;;;;;;;;;;5049860;28;20040;-46
2023/02/07 01:44:24;;;;;;;1.27;1.10;;;;;;;;;;5052347;28;20029;-47
2023/02/07 01:46:51;;;;;;;1.48;0.85;;;;;;;;;;5052984;28;20584;-46
2023/02/07 01:49:19;;;;;;;1.77;1.20;;;;;;;;;;5050499;28;20021;-46
2023/02/07 01:51:47;;;;;;;1.85;1.10;;;;;;;;;;5048441;28;20041;-46
2023/02/07 01:54:13;;;;;;;1.50;0.98;;;;;;;;;;5040766;28;20079;-46
2023/02/07 01:56:42;;;;;;;2.17;1.10;;;;;;;;;;5050847;28;20021;-46
2023/02/07 01:59:08;;;;;;;1.55;1.08;;;;;;;;;;5040600;28;20025;-45
2023/02/07 02:01:34;;;;;;;1.48;1.20;;;;;;;;;;5043578;28;20465;-46
2023/02/07 02:04:00;;;;;;;1.67;1.58;;;;;;;;;;5051458;28;20051;-46
2023/02/07 02:06:27;;;;;;;1.98;1.20;;;;;;;;;;5056076;28;20056;-47
2023/02/07 02:08:58;;;;;;;1.30;1.02;;;;;;;;;;5071860;28;20107;-46
2023/02/07 02:11:33;;;;;;;1.30;1.02;;;;;;;;;;5069565;28;20430;-47
2023/02/07 02:14:18;;;;;;;2.10;1.17;;;;;;;;;;5072276;28;20029;-46
2023/02/07 02:16:49;;;;;;;1.42;1.02;;;;;;;;;;5066915;28;20378;-47
2023/02/07 02:19:34;;;;;;;1.08;0.90;;;;;;;;;;5067097;28;20424;-46
2023/02/07 02:22:12;;;;;;;1.85;1.00;;;;;;;;;;5065196;28;20035;-46
2023/02/07 02:24:47;;;;;;;1.25;0.95;;;;;;;;;;5069963;28;20035;-46
2023/02/07 02:27:32;;;;;;;2.58;1.40;;;;;;;;;;5071674;28;20032;-46
2023/02/07 02:30:16;;;;;;;1.75;1.10;;;;;;;;;;5071868;28;20032;-48
2023/02/07 02:32:42;;;;;;;1.65;1.10;;;;;;;;;;5067950;28;20025;-46
2023/02/07 02:35:13;;;;;;;1.35;1.15;;;;;;;;;;5065285;28;20024;-46
2023/02/07 02:37:53;;;;;;;1.40;1.05;;;;;;;;;;5066650;28;20024;-46
2023/02/07 02:40:26;;;;;;;2.83;1.33;;;;;;;;;;5070509;28;20496;-48
2023/02/07 02:42:56;;;;;;;1.38;1.10;;;;;;;;;;5071604;28;20059;-46
2023/02/07 02:45:28;;;;;;;1.58;1.27;;;;;;;;;;5060538;28;20024;-46
2023/02/07 02:47:54;;;;;;;2.20;1.50;;;;;;;;;;5060512;28;20461;-46
2023/02/07 02:50:28;;;;;;;2.67;1.23;;;;;;;;;;5065149;28;20062;-47
2023/02/07 02:52:54;;;;;;;2.53;1.10;;;;;;;;;;5048056;28;20150;-47
2023/02/07 02:55:40;;;;;;;1.77;1.42;;;;;;;;;;5070922;28;20342;-47
2023/02/07 02:58:13;;;;;;;1.77;1.48;;;;;;;;;;5070393;28;20171;-46
2023/02/07 03:01:03;;;;;;;1.85;1.30;;;;;;;;;;5072042;28;20031;-47
2023/02/07 03:03:49;;;;;;;1.15;0.90;;;;;;;;;;5070784;28;20081;-46
2023/02/07 03:06:18;;;;;;;2.33;1.10;;;;;;;;;;5071224;28;20079;-48
2023/02/07 03:08:53;;;;;;;1.60;0.98;;;;;;;;;;5059681;28;20025;-47
2023/02/07 03:11:21;;;;;;;2.08;1.25;;;;;;;;;;5068299;28;20028;-47
2023/02/07 03:13:47;;;;;;;2.83;1.58;;;;;;;;;;5071417;28;20100;-45
2023/02/07 03:16:17;;;;;;;2.47;1.30;;;;;;;;;;5071356;28;20108;-47
2023/02/07 03:18:47;;;;;;;2.38;1.30;;;;;;;;;;5071204;28;20052;-46
2023/02/07 03:21:13;;;;;;;1.63;1.10;;;;;;;;;;5065753;28;20387;-45
2023/02/07 03:23:40;;;;;;;1.45;1.27;;;;;;;;;;5062769;28;20058;-46
2023/02/07 03:26:06;;;;;;;2.17;1.20;;;;;;;;;;5069814;28;20033;-46
2023/02/07 03:28:32;;;;;;;2.28;1.48;;;;;;;;;;5069895;28;20027;-46
2023/02/07 03:31:00;;;;;;;2.55;1.80;;;;;;;;;;5069350;28;20032;-48
2023/02/07 03:33:26;;;;;;;2.38;1.17;;;;;;;;;;5063239;28;20469;-46
2023/02/07 03:36:02;;;;;;;1.33;1.10;;;;;;;;;;5065252;28;20032;-47
2023/02/07 03:38:28;;;;;;;1.50;1.10;;;;;;;;;;5065761;28;20036;-46
2023/02/07 03:40:59;;;;;;;1.50;1.23;;;;;;;;;;5066039;28;20025;-48
2023/02/07 03:43:27;;;;;;;4.90;1.88;;;;;;;;;;5059601;28;20040;-47
2023/02/07 03:45:53;;;;;;;1.60;1.25;;;;;;;;;;5066581;28;20028;-47
2023/02/07 03:48:19;;;;;;;2.13;1.42;;;;;;;;;;5065496;28;20033;-48
2023/02/07 03:50:47;;;;;;;2.85;1.65;;;;;;;;;;5070677;28;20029;-46
2023/02/07 03:53:13;;;;;;;2.53;1.63;;;;;;;;;;5061484;28;20025;-48
2023/02/07 03:55:39;;;;;;;1.75;1.25;;;;;;;;;;5070365;28;20021;-47
2023/02/07 03:58:06;;;;;;;1.83;1.55;;;;;;;;;;5066373;28;20024;-47
2023/02/07 04:00:32;;;;;;;1.90;1.50;;;;;;;;;;5069373;28;20032;-48
2023/02/07 04:02:58;;;;;;;1.60;1.20;;;;;;;;;;5070380;28;20089;-49
2023/02/07 04:05:24;;;;;;;1.58;1.10;;;;;;;;;;5066138;28;20508;-46
2023/02/07 04:07:50;;;;;;;1.33;1.10;;;;;;;;;;5064156;28;20056;-47
2023/02/07 04:10:16;;;;;;;2.63;1.40;;;;;;;;;;5058466;28;20021;-46
2023/02/07 04:12:42;;;;;;;1.92;1.10;;;;;;;;;;5065258;28;20051;-46
2023/02/07 04:15:09;;;;;;;2.67;1.40;;;;;;;;;;5062384;28;20035;-45
2023/02/07 04:17:35;;;;;;;1.80;1.67;;;;;;;;;;5059624;28;20021;-47
2023/02/07 04:20:01;;;;;;;1.90;1.63;;;;;;;;;;5070413;28;20036;-47
2023/02/07 04:22:28;;;;;;;1.65;1.33;;;;;;;;;;5068979;28;20024;-45
2023/02/07 04:24:54;;;;;;;3.15;1.25;;;;;;;;;;5067423;28;20024;-47
2023/02/07 04:27:20;;;;;;;1.65;1.25;;;;;;;;;;5069402;28;20028;-46
2023/02/07 04:29:46;;;;;;;1.40;1.23;;;;;;;;;;5069532;28;20585;-49
2023/02/07 04:32:12;;;;;;;1.92;1.42;;;;;;;;;;5068636;28;20107;-47
2023/02/07 04:34:38;;;;;;;2.65;1.30;;;;;;;;;;5067050;28;20532;-48
2023/02/07 04:37:04;;;;;;;1.58;1.33;;;;;;;;;;5068336;28;20024;-46
2023/02/07 04:39:30;;;;;;;1.52;1.33;;;;;;;;;;5058578;28;20024;-45
2023/02/07 04:41:56;;;;;;;1.67;1.42;;;;;;;;;;5061634;28;20107;-46
2023/02/07 04:44:22;;;;;;;1.30;1.20;;;;;;;;;;5067377;28;20469;-47
2023/02/07 04:46:47;;;;;;;2.15;1.48;;;;;;;;;;5062155;28;20048;-46
2023/02/07 04:49:13;;;;;;;2.00;1.30;;;;;;;;;;5045489;28;20025;-47
2023/02/07 04:51:39;;;;;;;1.85;1.23;;;;;;;;;;5060921;28;20032;-46
2023/02/07 04:54:05;;;;;;;2.58;1.70;;;;;;;;;;5052406;28;20472;-48
2023/02/07 04:56:31;;;;;;;1.50;1.30;;;;;;;;;;5073912;28;20017;-46
2023/02/07 04:58:57;;;;;;;1.92;1.50;;;;;;;;;;5074011;28;20503;-46
2023/02/07 05:01:23;;;;;;;2.13;1.30;;;;;;;;;;5073556;28;20035;-48
2023/02/07 05:03:49;;;;;;;2.25;1.38;;;;;;;;;;5074168;28;20489;-46
2023/02/07 05:06:15;;;;;;;2.25;1.42;;;;;;;;;;5069517;28;20072;-48
2023/02/07 05:08:41;;;;;;;1.65;1.20;;;;;;;;;;5070488;28;20351;-46
2023/02/07 05:11:07;;;;;;;1.83;1.35;;;;;;;;;;5045057;28;20016;-45
2023/02/07 05:13:33;;;;;;;1.70;1.17;;;;;;;;;;5072878;28;20469;-47
2023/02/07 05:16:02;;;;;;;1.98;1.27;;;;;;;;;;5074177;28;20377;-46
2023/02/07 05:18:28;;;;;;;2.30;1.30;;;;;;;;;;5072399;28;20016;-47
2023/02/07 05:20:54;;;;;;;3.45;2.15;;;;;;;;;;5070729;28;20028;-48
2023/02/07 05:23:20;;;;;;;1.80;1.25;;;;;;;;;;5058784;28;20104;-46
2023/02/07 05:25:47;;;;;;;1.58;1.40;;;;;;;;;;5068173;28;20017;-47
2023/02/07 05:28:13;;;;;;;1.63;1.30;;;;;;;;;;5071825;28;20032;-48
2023/02/07 05:30:39;;;;;;;2.95;1.50;;;;;;;;;;5073137;28;20371;-47
2023/02/07 05:33:05;;;;;;;1.73;1.40;;;;;;;;;;5067913;28;20082;-47
2023/02/07 05:35:34;;;;;;;2.67;1.48;;;;;;;;;;5069998;28;20025;-47
2023/02/07 05:38:01;;;;;;;1.45;1.30;;;;;;;;;;5065605;28;20025;-47
2023/02/07 05:40:27;;;;;;;2.60;1.63;;;;;;;;;;5066022;28;20032;-46
2023/02/07 05:42:53;;;;;;;2.13;1.40;;;;;;;;;;5072874;28;20099;-47
2023/02/07 05:45:20;;;;;;;1.80;1.25;;;;;;;;;;5070156;28;20024;-46
2023/02/07 05:47:45;;;;;;;1.48;1.17;;;;;;;;;;5062670;28;20447;-47
2023/02/07 05:50:11;;;;;;;2.03;1.30;;;;;;;;;;5070608;28;20024;-47
2023/02/07 05:52:38;;;;;;;1.60;1.38;;;;;;;;;;5072728;28;20017;-49
2023/02/07 05:55:04;;;;;;;1.70;1.30;;;;;;;;;;5072434;28;20035;-46
2023/02/07 05:57:30;;;;;;;2.80;1.20;;;;;;;;;;5037949;28;20834;-46
2023/02/07 05:59:56;;;;;;;1.73;1.10;;;;;;;;;;5043276;28;20126;-47
2023/02/07 06:02:22;;;;;;;2.08;1.17;;;;;;;;;;5053926;28;20028;-48
2023/02/07 06:04:48;;;;;;;1.60;1.33;;;;;;;;;;5066556;28;20473;-48
2023/02/07 06:07:14;;;;;;;1.77;1.25;;;;;;;;;;5059464;28;20047;-47
2023/02/07 06:09:40;;;;;;;2.28;1.50;;;;;;;;;;5065261;28;20528;-46
2023/02/07 06:12:06;;;;;;;2.78;1.38;;;;;;;;;;5072876;28;20032;-45
2023/02/07 06:14:32;;;;;;;2.35;1.23;;;;;;;;;;5065618;28;20027;-46
2023/02/07 06:16:58;;;;;;;3.55;1.40;;;;;;;;;;5069737;28;20020;-46
2023/02/07 06:19:24;;;;;;;2.40;1.73;;;;;;;;;;5067771;28;20032;-46
2023/02/07 06:21:50;;;;;;;2.60;1.42;;;;;;;;;;5070863;28;20043;-46
2023/02/07 06:24:16;;;;;;;2.85;1.20;;;;;;;;;;5067434;28;20071;-49
2023/02/07 06:26:43;;;;;;;2.00;1.33;;;;;;;;;;5065230;28;20017;-48
2023/02/07 06:29:09;;;;;;;1.30;1.05;;;;;;;;;;5071407;28;20032;-46
2023/02/07 06:31:35;;;;;;;6.95;1.30;;;;;;;;;;5063023;28;20028;-49
2023/02/07 06:34:01;;;;;;;2.25;1.40;;;;;;;;;;5070334;28;20535;-47
2023/02/07 06:36:27;;;;;;;2.40;1.50;;;;;;;;;;5064331;28;20079;-47
2023/02/07 06:38:54;;;;;;;4.00;1.48;;;;;;;;;;5060058;28;20028;-47
2023/02/07 06:41:20;;;;;;;3.88;1.40;;;;;;;;;;5070988;28;20040;-47
2023/02/07 06:43:46;;;;;;;2.70;1.52;;;;;;;;;;5071743;28;20039;-46
2023/02/07 06:46:12;;;;;;;1.58;1.23;;;;;;;;;;5059539;28;20017;-47
2023/02/07 06:48:38;;;;;;;2.20;1.17;;;;;;;;;;5063125;28;20059;-50
2023/02/07 06:51:04;;;;;;;2.35;1.23;;;;;;;;;;5065429;28;20518;-49
2023/02/07 06:53:30;;;;;;;2.28;1.10;;;;;;;;;;5065911;28;20104;-47
2023/02/07 06:55:56;;;;;;;2.88;1.42;;;;;;;;;;5067693;28;20480;-51
2023/02/07 06:58:22;;;;;;;5.20;1.40;;;;;;;;;;5067813;28;20052;-48
2023/02/07 07:00:48;;;;;;;2.13;1.63;;;;;;;;;;5070942;28;20020;-48
2023/02/07 07:03:14;;;;;;;5.80;1.77;;;;;;;;;;5071022;28;20027;-46
2023/02/07 07:05:41;;;;;;;1.60;1.20;;;;;;;;;;5061793;28;20017;-45
2023/02/07 07:08:07;;;;;;;3.40;1.70;;;;;;;;;;5070672;28;20095;-46
2023/02/07 07:10:33;;;;;;;2.75;1.33;;;;;;;;;;5068377;28;20017;-46
2023/02/07 07:12:59;;;;;;;2.28;1.30;;;;;;;;;;5053996;28;20841;-45
2023/02/07 07:15:25;;;;;;;2.70;1.60;;;;;;;;;;5070809;28;20103;-47
2023/02/07 07:17:51;;;;;;;5.45;1.55;;;;;;;;;;5072300;28;20085;-45
2023/02/07 07:20:17;;;;;;;4.07;1.67;;;;;;;;;;5045318;28;20031;-44
2023/02/07 07:22:43;;;;;;;2.63;1.50;;;;;;;;;;5063873;28;20033;-43
2023/02/07 07:25:09;;;;;;;3.17;1.60;;;;;;;;;;5070663;28;20515;-45
2023/02/07 07:27:35;;;;;;;3.00;1.50;;;;;;;;;;5071007;28;20127;-44
2023/02/07 07:30:01;;;;;;;3.47;1.60;;;;;;;;;;5066512;28;20108;-44
2023/02/07 07:32:27;;;;;;;2.10;1.73;;;;;;;;;;5062128;28;20032;-44
2023/02/07 07:34:53;;;;;;;4.22;1.60;;;;;;;;;;5062673;28;20020;-44
2023/02/07 07:37:19;;;;;;;3.13;1.48;;;;;;;;;;5061499;28;20070;-43
2023/02/07 07:39:45;;;;;;;2.50;1.30;;;;;;;;;;5053101;28;20028;-45
2023/02/07 07:42:11;;;;;;;2.88;1.60;;;;;;;;;;5062736;28;20444;-44
2023/02/07 07:44:37;;;;;;;2.33;1.73;;;;;;;;;;5065836;28;20032;-44
2023/02/07 07:47:03;;;;;;;2.35;1.33;;;;;;;;;;5066678;28;20365;-43
2023/02/07 07:49:29;;;;;;;3.25;2.08;;;;;;;;;;5058467;28;20113;-44
2023/02/07 07:51:55;;;;;;;3.00;1.50;;;;;;;;;;5060303;28;20083;-43
2023/02/07 07:54:21;;;;;;;4.13;1.67;;;;;;;;;;5057432;28;20476;-45
2023/02/07 07:56:47;;;;;;;3.05;1.70;;;;;;;;;;5063530;28;20081;-44
2023/02/07 07:59:13;;;;;;;3.92;1.65;;;;;;;;;;5069461;28;20024;-44
2023/02/07 08:01:39;;;;;;;3.20;1.52;;;;;;;;;;5064696;28;20478;-46
2023/02/07 08:04:05;;;;;;;1.90;1.33;;;;;;;;;;5063320;28;20115;-45
2023/02/07 08:06:31;;;;;;;5.00;1.77;;;;;;;;;;5065702;28;20040;-44
2023/02/07 08:08:57;;;;;;;2.05;1.50;;;;;;;;;;5063299;28;20025;-44
2023/02/07 08:11:24;;;;;;;6.10;2.42;;;;;;;;;;5066876;28;20036;-45
2023/02/07 08:13:50;;;;;;;2.40;1.60;;;;;;;;;;5057648;28;20159;-44
2023/02/07 08:16:16;;;;;;;4.35;1.60;;;;;;;;;;5065170;28;20104;-45
2023/02/07 08:18:42;;;;;;;2.80;1.45;;;;;;;;;;5060793;28;20028;-44
2023/02/07 08:21:09;;;;;;;2.75;1.50;;;;;;;;;;5069499;28;20052;-45
2023/02/07 08:23:35;;;;;;;3.13;1.73;;;;;;;;;;5065472;28;20037;-45
2023/02/07 08:26:01;;;;;;;3.40;1.80;;;;;;;;;;5072621;28;20025;-45
2023/02/07 08:28:27;;;;;;;2.28;1.60;;;;;;;;;;5075238;28;20029;-46
2023/02/07 08:30:53;;;;;;;3.25;1.40;;;;;;;;;;5071234;28;20032;-45
2023/02/07 08:33:20;;;;;;;2.22;1.30;;;;;;;;;;5064416;28;20042;-46
2023/02/07 08:35:46;;;;;;;1.70;1.38;;;;;;;;;;5068484;28;20206;-45
2023/02/07 08:38:12;;;;;;;2.40;1.70;;;;;;;;;;5071776;28;20047;-46
2023/02/07 08:40:38;;;;;;;3.25;1.50;;;;;;;;;;5058222;28;20076;-45
2023/02/07 08:43:11;;;;;;;2.58;1.52;;;;;;;;;;5069821;28;20056;-45
2023/02/07 08:45:36;;;;;;;3.15;1.63;;;;;;;;;;5073036;28;20021;-45
2023/02/07 08:48:03;;;;;;;3.92;1.60;;;;;;;;;;5062768;28;20123;-45
2023/02/07 08:50:28;;;;;;;2.33;1.70;;;;;;;;;;5072509;28;20047;-45
2023/02/07 08:52:54;;;;;;;3.10;1.55;;;;;;;;;;5065251;28;20021;-45
2023/02/07 08:55:20;;;;;;;3.45;1.55;;;;;;;;;;5068043;28;20064;-44
2023/02/07 08:57:46;;;;;;;3.75;1.90;;;;;;;;;;5076362;28;20021;-45
2023/02/07 09:00:13;;;;;;;1.80;1.20;;;;;;;;;;5075258;28;20028;-45
2023/02/07 09:02:39;;;;;;;4.22;1.65;;;;;;;;;;5074515;28;20032;-45
2023/02/07 09:05:06;;;;;;;3.33;1.95;;;;;;;;;;5069034;28;20085;-45
2023/02/07 09:07:32;;;;;;;2.35;1.52;;;;;;;;;;5073460;28;20060;-45
2023/02/07 09:09:58;;;;;;;3.65;1.88;;;;;;;;;;5075858;28;20029;-46
2023/02/07 09:12:24;;;;;;;2.38;1.63;;;;;;;;;;5080934;28;20028;-45
2023/02/07 09:14:50;;;;;;;2.25;1.95;;;;;;;;;;5076169;28;20031;-46
2023/02/07 09:17:17;;;;;;;3.17;1.90;;;;;;;;;;5072645;28;20045;-44
2023/02/07 09:19:43;;;;;;;2.97;1.60;;;;;;;;;;5076242;28;20024;-44
2023/02/07 09:22:09;;;;;;;1.75;1.50;;;;;;;;;;5073065;28;20466;-46
2023/02/07 09:24:35;;;;;;;2.95;1.85;;;;;;;;;;5074141;28;20055;-45
2023/02/07 09:27:01;;;;;;;2.90;1.65;;;;;;;;;;5076503;28;20025;-45
2023/02/07 09:29:27;;;;;;;3.85;2.17;;;;;;;;;;5074797;28;20552;-47
2023/02/07 09:31:53;;;;;;;2.65;1.45;;;;;;;;;;5075835;28;20032;-47
2023/02/07 09:34:19;;;;;;;2.78;2.00;;;;;;;;;;5073913;28;20024;-44
2023/02/07 09:36:45;;;;;;;3.58;2.05;;;;;;;;;;5074459;28;20039;-44
2023/02/07 09:39:11;;;;;;;2.20;1.40;;;;;;;;;;5064114;28;20016;-45
2023/02/07 09:41:55;;;;;;;2.78;1.60;;;;;;;;;;5069398;28;20025;-44
2023/02/07 09:44:26;;;;;;;2.70;1.58;;;;;;;;;;5058692;28;20029;-46
2023/02/07 09:46:57;;;;;;;4.78;2.13;;;;;;;;;;5056808;28;20081;-44
2023/02/07 09:49:29;;;;;;;1.75;1.25;;;;;;;;;;5054423;28;20029;-44
2023/02/07 09:51:57;;;;;;;2.85;1.67;;;;;;;;;;5046918;28;20439;-45
2023/02/07 09:54:30;;;;;;;3.42;1.85;;;;;;;;;;5069384;28;20037;-45
2023/02/07 09:56:58;;;;;;;2.90;1.48;;;;;;;;;;5059646;28;20085;-44
2023/02/07 09:59:27;;;;;;;6.07;2.22;;;;;;;;;;5065196;28;20025;-45
2023/02/07 10:01:57;;;;;;;2.45;1.65;;;;;;;;;;5072714;28;20036;-43
2023/02/07 10:04:29;;;;;;;2.08;1.60;;;;;;;;;;5070977;28;20382;-43
2023/02/07 10:06:56;;;;;;;4.32;2.00;;;;;;;;;;5072387;28;20044;-43
2023/02/07 10:09:25;;;;;;;2.50;1.67;;;;;;;;;;5059390;28;20037;-44
2023/02/07 10:11:53;;;;;;;4.80;2.13;;;;;;;;;;5060978;28;20071;-43
2023/02/07 10:14:34;;;;;;;2.15;1.50;;;;;;;;;;5055304;28;20474;-44
2023/02/07 10:17:09;;;;;;;2.58;1.55;;;;;;;;;;5065162;28;20024;-43
2023/02/07 10:19:35;;;;;;;2.78;1.60;;;;;;;;;;5062757;28;20477;-44
2023/02/07 10:22:01;;;;;;;2.53;1.75;;;;;;;;;;5066820;28;20056;-45
2023/02/07 10:24:38;;;;;;;4.82;1.80;;;;;;;;;;5069896;28;20024;-46
2023/02/07 10:27:10;;;;;;;3.88;1.83;;;;;;;;;;5061644;28;20027;-43
2023/02/07 10:29:36;;;;;;;;;;;;;;;;;;5070963;28;20048;-43
2023/02/07 10:32:09;;;;;;;4.00;1.80;;;;;;;;;;5065038;28;20353;-44
2023/02/07 10:34:37;;;;;;;3.53;2.05;;;;;;;;;;5068731;28;20115;-44
2023/02/07 10:37:12;;;;;;;2.60;1.70;;;;;;;;;;5067317;28;20408;-43
2023/02/07 10:39:41;;;;;;;2.40;1.60;;;;;;;;;;5071430;28;20027;-44
2023/02/07 10:42:13;;;;;;;3.25;1.48;;;;;;;;;;5069010;28;20036;-44
2023/02/07 10:44:39;;;;;;;3.70;2.17;;;;;;;;;;5053114;28;20024;-43
2023/02/07 10:47:08;;;;;;;2.58;1.58;;;;;;;;;;5062231;28;20120;-43
2023/02/07 10:49:36;;;;;;;4.75;1.70;;;;;;;;;;5069106;28;20048;-44
2023/02/07 10:52:20;;;;;;;3.15;1.98;;;;;;;;;;5062778;28;20497;-43
2023/02/07 10:54:51;;;;;;;1.80;1.55;;;;;;;;;;5060913;28;20107;-43
2023/02/07 10:57:18;;;;;;;3.92;1.52;;;;;;;;;;5071277;28;20032;-43
2023/02/07 10:59:45;;;;;;;3.47;1.88;;;;;;;;;;5067823;28;20036;-43
2023/02/07 11:02:36;;;;;;;4.88;2.03;;;;;;;;;;5071312;28;20033;-44
2023/02/07 11:05:14;;;;;;;2.00;1.60;;;;;;;;;;5071048;28;20051;-43
2023/02/07 11:07:40;;;;;;;2.60;1.65;;;;;;;;;;5071680;28;20411;-43
2023/02/07 11:10:18;;;;;;;2.40;1.42;;;;;;;;;;5065549;28;20021;-43
2023/02/07 11:12:47;;;;;;;1.83;1.55;;;;;;;;;;5070523;28;20032;-42
2023/02/07 11:15:18;;;;;;;2.60;1.38;;;;;;;;;;5065886;28;20025;-43
2023/02/07 11:17:50;;;;;;;2.95;1.67;;;;;;;;;;5058214;28;20028;-43
2023/02/07 11:20:28;;;;;;;2.47;1.42;;;;;;;;;;5062705;28;20428;-44
2023/02/07 11:22:55;;;;;;;3.38;1.60;;;;;;;;;;5068343;28;20040;-46
2023/02/07 11:25:31;;;;;;;2.60;1.65;;;;;;;;;;5062602;28;20024;-43
2023/02/07 11:27:58;;;;;;;2.22;1.40;;;;;;;;;;5063703;28;20107;-43
2023/02/07 11:30:26;;;;;;;4.07;1.45;;;;;;;;;;5057955;28;20334;-43
2023/02/07 11:32:58;;;;;;;2.65;1.45;;;;;;;;;;5070768;28;20418;-43
2023/02/07 11:35:24;;;;;;;1.83;1.40;;;;;;;;;;5068495;28;20795;-43
2023/02/07 11:38:10;;;;;;;2.13;1.45;;;;;;;;;;5057942;28;20075;-43
2023/02/07 11:40:38;;;;;;;2.90;1.52;;;;;;;;;;5067355;28;20044;-43
2023/02/07 11:43:17;;;;;;;3.42;2.22;;;;;;;;;;5067860;28;20028;-46
2023/02/07 11:45:44;;;;;;;2.45;1.65;;;;;;;;;;5056081;28;20477;-43
2023/02/07 11:48:23;;;;;;;2.67;1.70;;;;;;;;;;5063258;28;20525;-43
2023/02/07 11:50:54;;;;;;;3.30;1.95;;;;;;;;;;5066564;28;20087;-43
2023/02/07 11:53:38;;;;;;;3.80;1.70;;;;;;;;;;5066955;28;20022;-43
2023/02/07 11:56:04;;;;;;;3.45;2.22;;;;;;;;;;5063853;28;20054;-43
2023/02/07 11:58:46;;;;;;;2.97;1.90;;;;;;;;;;5058383;28;20112;-45
2023/02/07 12:01:15;;;;;;;3.95;1.50;;;;;;;;;;5062182;28;20033;-43
2023/02/07 12:03:59;;;;;;;3.97;1.75;;;;;;;;;;5060139;28;20036;-43
2023/02/07 12:06:38;;;;;;;2.08;1.30;;;;;;;;;;5069132;28;20067;-44
2023/02/07 12:09:09;;;;;;;2.60;1.90;;;;;;;;;;5063469;28;20031;-45
2023/02/07 12:11:36;;;;;;;5.47;2.10;;;;;;;;;;5057794;28;20032;-43
2023/02/07 12:14:13;;;;;;;4.47;2.08;;;;;;;;;;5069134;28;20039;-44
2023/02/07 12:16:42;;;;;;;2.10;1.60;;;;;;;;;;5064443;28;20024;-43
2023/02/07 12:19:12;;;;;;;4.10;1.83;;;;;;;;;;5063165;28;20028;-44
2023/02/07 12:21:47;;;;;;;3.90;1.80;;;;;;;;;;5066787;28;20482;-43
2023/02/07 12:24:17;;;;;;;4.57;1.95;;;;;;;;;;5068058;28;20086;-43
2023/02/07 12:26:47;;;;;;;3.53;1.83;;;;;;;;;;5070800;28;20028;-44
2023/02/07 12:29:13;;;;;;;8.55;3.92;;;;;;;;;;5071411;28;20054;-46
2023/02/07 12:32:00;;;;;;;4.32;2.90;;;;;;;;;;5075992;28;20028;-45
2023/02/07 12:34:40;;;;;;;5.65;3.33;;;;;;;;;;5068515;28;20029;-44
2023/02/07 12:37:25;;;;;;;5.40;2.88;;;;;;;;;;5068599;28;20519;-44
2023/02/07 12:40:03;;;;;;;3.70;2.97;;;;;;;;;;5066089;28;20028;-43
2023/02/07 12:42:32;;;;;;;5.03;2.58;;;;;;;;;;5067089;28;20029;-43
2023/02/07 12:44:59;;;;;;;4.55;2.80;;;;;;;;;;5048228;28;20047;-43
2023/02/07 12:47:44;;;;;;;4.80;2.92;;;;;;;;;;5065899;28;20020;-44
2023/02/07 12:50:17;;;;;;;4.35;3.30;;;;;;;;;;5068452;28;20146;-44
2023/02/07 12:52:51;;;;;;;4.07;2.50;;;;;;;;;;5068818;28;20033;-44
2023/02/07 12:55:36;;;;;;;3.30;2.50;;;;;;;;;;5068348;28;20032;-44
2023/02/07 12:58:17;;;;;;;4.00;2.47;;;;;;;;;;5067136;28;20035;-43
2023/02/07 13:00:55;;;;;;;5.38;3.08;;;;;;;;;;5068288;28;20378;-44
2023/02/07 13:03:39;;;;;;;4.28;2.40;;;;;;;;;;5061098;28;20081;-44
2023/02/07 13:06:24;;;;;;;3.53;2.45;;;;;;;;;;5069858;28;20076;-44
2023/02/07 13:09:02;;;;;;;4.35;2.22;;;;;;;;;;5069898;28;20043;-44
2023/02/07 13:11:46;;;;;;;4.03;2.10;;;;;;;;;;5057726;28;20085;-43
2023/02/07 13:14:28;;;;;;;5.03;2.80;;;;;;;;;;5071924;28;20028;-44
2023/02/07 13:16:57;;;;;;;3.45;2.60;;;;;;;;;;5062205;28;20025;-45
2023/02/07 13:19:28;;;;;;;3.88;2.70;;;;;;;;;;5059923;28;20026;-45
2023/02/07 13:22:05;;;;;;;5.57;3.10;;;;;;;;;;5065994;28;20029;-44
2023/02/07 13:24:32;;;;;;;4.53;2.30;;;;;;;;;;5064124;28;20033;-44
2023/02/07 13:27:02;;;;;;;4.93;3.15;;;;;;;;;;5068142;28;20040;-44
2023/02/07 13:29:30;;;;;;;2.75;1.90;;;;;;;;;;5065358;28;20078;-44
2023/02/07 13:31:58;;;;;;;4.45;2.08;;;;;;;;;;5066312;28;20028;-44
2023/02/07 13:34:27;;;;;;;6.28;2.05;;;;;;;;;;5067903;28;20035;-44
2023/02/07 13:36:54;;;;;;;5.78;2.45;;;;;;;;;;5064631;28;20016;-44
2023/02/07 13:39:32;;;;;;;4.07;2.20;;;;;;;;;;5072061;28;20424;-44
2023/02/07 13:42:16;;;;;;;3.70;1.98;;;;;;;;;;5064931;28;20116;-44
2023/02/07 13:44:45;;;;;;;6.85;2.10;;;;;;;;;;5068530;28;20032;-42
2023/02/07 13:47:18;;;;;;;4.18;2.13;;;;;;;;;;5070609;28;20029;-44
2023/02/07 13:49:44;;;;;;;3.63;1.98;;;;;;;;;;5071089;28;20031;-44
2023/02/07 13:52:13;;;;;;;3.83;2.28;;;;;;;;;;5068067;28;20033;-45
2023/02/07 13:54:51;;;;;;;3.67;2.28;;;;;;;;;;5060144;28;20032;-43
2023/02/07 14:00:18;;;;;;;3.70;2.40;;;;;;;;;;5066299;28;20405;-44
2023/02/07 14:02:49;;;;;;;6.07;2.22;;;;;;;;;;5066052;28;20033;-44
2023/02/07 14:05:23;;;;;;;4.32;2.20;;;;;;;;;;5062116;28;20028;-43
2023/02/07 14:08:00;;;;;;;2.40;2.03;;;;;;;;;;5072642;28;20080;-44
2023/02/07 14:10:32;;;;;;;5.38;2.10;;;;;;;;;;5067335;28;20024;-43
2023/02/07 14:12:58;;;;;;;3.28;2.42;;;;;;;;;;5066747;28;20492;-43
2023/02/07 14:15:29;;;;;;;3.33;2.20;;;;;;;;;;5062664;28;20032;-44
2023/02/07 14:17:56;;;;;;;4.53;2.10;;;;;;;;;;5066972;28;20036;-42
2023/02/07 14:20:35;;;;;;;4.47;1.77;;;;;;;;;;5073478;28;20025;-43
2023/02/07 14:23:01;;;;;;;4.00;1.73;;;;;;;;;;5060117;28;20034;-44
2023/02/07 14:25:30;;;;;;;4.57;2.03;;;;;;;;;;5059194;28;20099;-45
2023/02/07 14:28:02;;;;;;;4.68;2.65;;;;;;;;;;5069573;28;20048;-43
2023/02/07 14:30:29;;;;;;;;;;;;;;;;;;5067981;28;20194;-46
2023/02/07 14:33:12;;;;;;;4.30;1.88;;;;;;;;;;5067305;28;19912;-45
2023/02/07 14:35:45;;;;;;;3.15;1.60;;;;;;;;;;5063392;28;20373;-44
2023/02/07 14:38:20;;;;;;;3.78;1.80;;;;;;;;;;5070594;28;20381;-44
2023/02/07 14:40:46;;;;;;;3.28;2.13;;;;;;;;;;5068205;28;20085;-45
2023/02/07 14:43:12;;;;;;;3.22;2.03;;;;;;;;;;5066228;28;20029;-45
2023/02/07 14:45:40;;;;;;;5.22;2.00;;;;;;;;;;5069785;28;20032;-43
2023/02/07 14:48:26;;;;;;;4.47;1.90;;;;;;;;;;5063755;28;20048;-45
2023/02/07 14:50:52;;;;;;;2.00;1.67;;;;;;;;;;5062061;28;20042;-45
2023/02/07 14:53:18;;;;;;;4.57;2.05;;;;;;;;;;5057240;28;20024;-44
2023/02/07 14:55:50;;;;;;;4.28;1.70;;;;;;;;;;5072287;28;20499;-46
2023/02/07 14:58:25;;;;;;;2.90;1.88;;;;;;;;;;5068785;28;20031;-44